Time;durP1;ratioP1;P1;durP2;ratioP2;P2;SDS_P1;SDS_P2;PMS_P1;PMS_P2;Temp;Humidity;BMP_temperature;BMP_pressure;BME280_temperature;BME280_humidity;BME280_pressure;Samples;Min_cycle;Max_cycle;Signal;HPM_P1;HPM_P2
2022/05/28 00:01:48;;;;;;;5.10;1.30;;;;;;;9.55;100.00;98444.69;15285386;19;20011;-62
2022/05/28 00:06:54;;;;;;;5.07;1.40;;;;;;;9.46;100.00;98447.44;15282029;19;20764;-60
2022/05/28 00:11:59;;;;;;;4.43;1.38;;;;;;;9.33;100.00;98429.84;15283799;19;20003;-61
2022/05/28 00:17:07;;;;;;;3.78;1.13;;;;;;;9.32;100.00;98432.69;15284068;19;20573;-61
2022/05/28 00:22:13;;;;;;;5.88;1.38;;;;;;;9.17;100.00;98430.53;15286125;19;20011;-58
2022/05/28 00:27:18;;;;;;;4.72;1.30;;;;;;;9.15;100.00;98431.69;15281362;19;20033;-64
2022/05/28 00:32:26;;;;;;;5.65;1.60;;;;;;;9.12;100.00;98427.44;15282529;19;20013;-61
2022/05/28 00:37:31;;;;;;;4.40;1.30;;;;;;;9.04;100.00;98430.03;15278587;19;20022;-60
2022/05/28 00:42:36;;;;;;;5.10;1.35;;;;;;;9.01;100.00;98428.50;15282141;19;20007;-58
2022/05/28 00:47:48;;;;;;;4.20;1.17;;;;;;;9.00;100.00;98429.50;15280642;19;20010;-57
2022/05/28 00:52:53;;;;;;;4.47;1.30;;;;;;;8.91;100.00;98427.72;15280656;19;20019;-56
2022/05/28 00:58:01;;;;;;;3.00;1.20;;;;;;;8.96;100.00;98421.91;15279441;19;20918;-65
2022/05/28 01:03:17;;;;;;;7.63;1.45;;;;;;;8.82;100.00;98418.72;15279247;19;20018;-57
2022/05/28 01:08:27;;;;;;;5.72;1.20;;;;;;;8.81;100.00;98418.88;15274598;19;20344;-56
2022/05/28 01:13:37;;;;;;;4.03;1.33;;;;;;;8.86;100.00;98419.25;15280372;19;20019;-59
2022/05/28 01:18:50;;;;;;;4.50;1.15;;;;;;;8.77;100.00;98429.91;15279375;19;20337;-59
2022/05/28 01:24:09;;;;;;;5.38;1.30;;;;;;;8.75;100.00;98417.66;15281199;19;20049;-60
2022/05/28 01:29:20;;;;;;;4.35;1.30;;;;;;;8.63;100.00;98409.78;15253333;19;20042;-59
2022/05/28 01:34:27;;;;;;;3.33;1.17;;;;;;;8.59;100.00;98416.44;15275245;19;20011;-62
2022/05/28 01:39:34;;;;;;;5.57;1.30;;;;;;;8.56;100.00;98414.03;15273518;19;20050;-63
2022/05/28 01:44:44;;;;;;;5.10;1.30;;;;;;;8.66;100.00;98405.09;15280678;19;20014;-62
2022/05/28 01:49:51;;;;;;;2.83;1.00;;;;;;;8.65;100.00;98401.56;15277231;19;20010;-63
2022/05/28 01:54:57;;;;;;;3.83;1.10;;;;;;;8.73;100.00;98384.72;15278262;19;20026;-62
2022/05/28 02:00:06;;;;;;;6.72;1.40;;;;;;;8.66;100.00;98384.47;15276031;19;20234;-61
2022/05/28 02:05:13;;;;;;;3.97;1.23;;;;;;;8.59;100.00;98365.41;15275784;19;20018;-61
2022/05/28 02:10:21;;;;;;;5.10;1.30;;;;;;;8.49;100.00;98367.31;15270649;19;20026;-61
2022/05/28 02:15:40;;;;;;;3.88;1.33;;;;;;;8.47;100.00;98366.59;15275005;19;20038;-61
2022/05/28 02:20:54;;;;;;;3.67;1.00;;;;;;;8.29;100.00;98372.72;15275246;19;20018;-61
2022/05/28 02:26:08;;;;;;;4.45;1.20;;;;;;;8.17;100.00;98365.88;15276764;19;20015;-60
2022/05/28 02:31:21;;;;;;;3.60;1.15;;;;;;;8.09;100.00;98357.69;15273338;19;20021;-61
2022/05/28 02:36:26;;;;;;;;;;;;;;;8.04;100.00;98351.94;15270771;19;20560;-58
2022/05/28 02:41:32;;;;;;;4.30;1.25;;;;;;;8.11;100.00;98345.00;15285576;19;19974;-61
2022/05/28 02:46:39;;;;;;;6.43;1.10;;;;;;;8.04;100.00;98341.22;15290127;19;20021;-61
2022/05/28 02:51:44;;;;;;;3.83;1.20;;;;;;;7.92;100.00;98338.72;15288553;19;20053;-62
2022/05/28 02:56:49;;;;;;;4.82;1.30;;;;;;;7.77;100.00;98334.81;15287659;19;20356;-60
2022/05/28 03:01:57;;;;;;;5.72;1.33;;;;;;;7.74;100.00;98325.22;15289453;19;20038;-61
2022/05/28 03:07:03;;;;;;;3.45;1.17;;;;;;;7.71;100.00;98331.69;15288554;19;20385;-61
2022/05/28 03:12:09;;;;;;;4.35;1.23;;;;;;;7.69;100.00;98319.44;15282214;19;20046;-62
2022/05/28 03:17:17;;;;;;;4.85;1.30;;;;;;;7.70;100.00;98319.28;15284059;19;20459;-60
2022/05/28 03:22:22;;;;;;;3.92;1.23;;;;;;;7.93;100.00;98323.44;15288148;19;20836;-60
2022/05/28 03:27:28;;;;;;;4.03;1.30;;;;;;;7.90;100.00;98326.41;15287799;19;20014;-61
2022/05/28 03:32:36;;;;;;;5.57;1.20;;;;;;;7.93;100.00;98321.63;15289458;19;20015;-61
2022/05/28 03:37:41;;;;;;;4.10;1.40;;;;;;;7.97;100.00;98314.97;15285501;19;20014;-61
2022/05/28 03:42:46;;;;;;;4.93;1.27;;;;;;;8.06;100.00;98323.97;15285766;19;20014;-62
2022/05/28 03:47:54;;;;;;;4.05;1.25;;;;;;;8.29;100.00;98312.84;15283051;19;20046;-59
2022/05/28 03:52:58;;;;;;;5.40;1.42;;;;;;;8.36;100.00;98313.91;15285926;19;20018;-61
2022/05/28 03:58:04;;;;;;;4.50;1.15;;;;;;;8.46;100.00;98313.88;15280081;19;20014;-61
2022/05/28 04:03:12;;;;;;;3.88;1.15;;;;;;;8.58;100.00;98317.25;15284674;19;20014;-61
2022/05/28 04:08:17;;;;;;;6.47;1.50;;;;;;;8.58;100.00;98338.72;15284923;19;20018;-61
2022/05/28 04:13:22;;;;;;;5.70;1.20;;;;;;;8.67;100.00;98315.47;15284791;19;20031;-62
2022/05/28 04:18:30;;;;;;;5.80;1.60;;;;;;;8.70;100.00;98316.00;15280224;19;20011;-62
2022/05/28 04:23:35;;;;;;;3.30;1.00;;;;;;;8.82;100.00;98323.88;15286590;19;20010;-60
2022/05/28 04:28:40;;;;;;;4.85;1.38;;;;;;;8.79;100.00;98325.84;15281439;19;20032;-59
2022/05/28 04:33:48;;;;;;;4.70;1.50;;;;;;;8.96;100.00;98331.38;15283884;19;20364;-60
2022/05/28 04:38:53;;;;;;;6.53;1.40;;;;;;;9.08;100.00;98318.56;15283055;19;20007;-61
2022/05/28 04:43:58;;;;;;;6.43;1.40;;;;;;;9.15;100.00;98325.00;15283642;19;20018;-61
2022/05/28 04:49:06;;;;;;;4.57;1.20;;;;;;;9.22;100.00;98315.34;15279588;19;20054;-61
2022/05/28 04:54:11;;;;;;;6.25;1.30;;;;;;;9.31;100.00;98318.09;15283697;19;20542;-68
2022/05/28 04:59:18;;;;;;;6.22;1.30;;;;;;;9.36;100.00;98322.00;15283013;19;20352;-61
2022/05/28 05:04:26;;;;;;;5.25;1.30;;;;;;;9.46;100.00;98316.53;15284374;19;20011;-60
2022/05/28 05:09:31;;;;;;;5.30;1.40;;;;;;;9.68;100.00;98314.31;15280132;19;20027;-60
2022/05/28 05:14:36;;;;;;;4.03;1.20;;;;;;;9.87;100.00;98319.47;15281813;19;20010;-61
2022/05/28 05:19:44;;;;;;;5.53;1.48;;;;;;;9.85;100.00;98320.66;15275102;19;20045;-60
2022/05/28 05:24:49;;;;;;;4.47;1.27;;;;;;;9.92;100.00;98318.16;15283222;19;20010;-61
2022/05/28 05:29:54;;;;;;;5.32;1.52;;;;;;;10.16;100.00;98326.38;15278554;19;20010;-58
2022/05/28 05:35:01;;;;;;;5.72;1.42;;;;;;;10.12;100.00;98343.84;15282500;19;20018;-60
2022/05/28 05:40:08;;;;;;;7.60;1.38;;;;;;;9.99;100.00;98354.19;15278533;19;20014;-60
2022/05/28 05:45:14;;;;;;;7.95;1.40;;;;;;;9.98;100.00;98369.50;15281848;19;20037;-60
2022/05/28 05:50:22;;;;;;;5.43;1.48;;;;;;;9.87;100.00;98364.38;15275738;19;20027;-61
2022/05/28 05:55:27;;;;;;;3.08;1.13;;;;;;;10.14;100.00;98357.97;15274248;19;20015;-60
2022/05/28 06:00:34;;;;;;;4.40;1.30;;;;;;;10.21;100.00;98357.31;15280955;19;20380;-61
2022/05/28 06:05:41;;;;;;;5.35;1.58;;;;;;;10.12;100.00;98359.13;15279115;19;20014;-60
2022/05/28 06:10:47;;;;;;;4.35;1.30;;;;;;;9.97;100.00;98361.56;15282058;19;20014;-62
2022/05/28 06:15:52;;;;;;;7.10;1.50;;;;;;;10.03;100.00;98372.53;15276120;19;20027;-63
2022/05/28 06:21:01;;;;;;;5.53;1.40;;;;;;;10.11;100.00;98374.44;15276699;19;20504;-59
2022/05/28 06:26:06;;;;;;;6.28;1.40;;;;;;;10.03;100.00;98360.94;15273153;19;20019;-62
2022/05/28 06:31:14;;;;;;;3.60;1.20;;;;;;;10.38;100.00;98361.84;15279059;19;20467;-59
2022/05/28 06:36:22;;;;;;;5.70;1.35;;;;;;;10.72;100.00;98366.34;15275654;19;20018;-61
2022/05/28 06:41:28;;;;;;;3.13;1.17;;;;;;;10.99;100.00;98348.22;15277053;19;20014;-62
2022/05/28 06:46:34;;;;;;;4.28;1.10;;;;;;;10.63;100.00;98372.72;15274588;19;20018;-59
2022/05/28 06:51:42;;;;;;;4.70;1.40;;;;;;;10.48;100.00;98367.06;15275861;19;20521;-60
2022/05/28 06:56:48;;;;;;;5.40;1.23;;;;;;;10.95;100.00;98363.03;15270182;19;20014;-61
2022/05/28 07:01:55;;;;;;;4.60;1.10;;;;;;;10.96;100.00;98364.72;15276386;19;20012;-62
2022/05/28 07:07:03;;;;;;;4.70;1.08;;;;;;;10.89;100.00;98371.75;15275073;19;20015;-62
2022/05/28 07:12:10;;;;;;;2.97;1.15;;;;;;;10.99;100.00;98350.06;15275791;19;20490;-62
2022/05/28 07:17:15;;;;;;;4.18;1.13;;;;;;;11.29;100.00;98364.75;15273852;19;20021;-64
2022/05/28 07:22:23;;;;;;;5.25;0.80;;;;;;;11.13;100.00;98356.63;15274123;19;20022;-59
2022/05/28 07:27:28;;;;;;;2.75;0.90;;;;;;;11.37;100.00;98356.66;15282337;19;20031;-60
2022/05/28 07:32:33;;;;;;;2.65;0.90;;;;;;;11.36;100.00;98386.50;15289547;19;20014;-59
2022/05/28 07:37:41;;;;;;;5.60;1.10;;;;;;;11.54;100.00;98356.66;15282593;19;20352;-60
2022/05/28 07:42:46;;;;;;;2.53;0.80;;;;;;;11.74;100.00;98364.41;15289179;19;20050;-60
2022/05/28 07:47:57;;;;;;;4.67;0.80;;;;;;;11.34;100.00;98392.09;15289643;19;20007;-59
2022/05/28 07:53:06;;;;;;;1.90;0.80;;;;;;;11.28;100.00;98370.31;15288766;19;20803;-60
2022/05/28 07:58:14;;;;;;;3.42;0.80;;;;;;;11.59;100.00;98367.78;15281161;19;20479;-61
2022/05/28 08:03:20;;;;;;;4.65;0.85;;;;;;;11.53;100.00;98366.59;15284537;19;20014;-60
2022/05/28 08:08:29;;;;;;;2.40;0.90;;;;;;;11.44;100.00;98370.31;15284077;19;20035;-59
2022/05/28 08:13:34;;;;;;;4.47;0.85;;;;;;;11.32;100.00;98368.97;15306178;19;20014;-79
2022/05/28 08:18:39;;;;;;;2.72;0.88;;;;;;;11.41;100.00;98387.69;15320095;19;20019;-78
2022/05/28 08:23:47;;;;;;;2.22;0.80;;;;;;;11.36;100.00;98384.63;15314532;19;20462;-79
2022/05/28 08:28:54;;;;;;;2.97;0.70;;;;;;;11.30;100.00;98387.16;15315475;19;20019;-78
2022/05/28 08:33:59;;;;;;;3.80;1.10;;;;;;;11.39;100.00;98400.50;15299439;19;20025;-80
2022/05/28 08:39:07;;;;;;;2.20;0.88;;;;;;;11.55;100.00;98388.88;15294215;19;20010;-79
2022/05/28 08:44:18;;;;;;;3.45;0.90;;;;;;;11.63;100.00;98398.81;15313924;19;20002;-81
2022/05/28 08:49:27;;;;;;;6.27;1.20;;;;;;;11.80;100.00;98393.44;15322263;19;20017;-79
2022/05/28 08:54:39;;;;;;;3.03;0.93;;;;;;;12.28;100.00;98375.50;15323742;19;20018;-78
2022/05/28 09:00:07;;;;;;;6.70;1.02;;;;;;;12.38;95.69;98377.97;15334159;19;20018;-77
2022/05/28 09:05:23;;;;;;;4.25;0.93;;;;;;;12.58;100.00;98370.31;15337721;19;20545;-78
2022/05/28 09:10:38;;;;;;;4.05;1.00;;;;;;;12.60;92.78;98405.25;15297763;19;20002;-78
2022/05/28 09:15:44;;;;;;;2.38;0.80;;;;;;;12.79;90.19;98393.19;15302896;19;20006;-77
2022/05/28 09:21:00;;;;;;;3.20;0.90;;;;;;;12.49;86.77;98371.34;15298991;19;20023;-79
2022/05/28 09:26:09;;;;;;;3.60;0.75;;;;;;;12.65;85.91;98362.34;15305699;19;20042;-78
2022/05/28 09:31:29;;;;;;;4.75;0.90;;;;;;;12.92;81.10;98393.44;15321824;19;20034;-79
2022/05/28 09:36:44;;;;;;;2.88;0.70;;;;;;;13.22;85.57;98380.09;15315734;19;20678;-78
2022/05/28 09:42:08;;;;;;;4.28;1.00;;;;;;;13.31;97.36;98388.16;15317048;19;20011;-79
2022/05/28 09:47:19;;;;;;;3.10;1.00;;;;;;;12.78;91.06;98383.38;15321221;19;20015;-78
2022/05/28 09:52:27;;;;;;;3.58;0.80;;;;;;;12.60;90.58;98387.19;15312614;19;20006;-78
2022/05/28 09:57:46;;;;;;;1.75;0.70;;;;;;;12.86;81.46;98406.84;15306120;19;20476;-79
2022/05/28 10:08:15;;;;;;;3.28;0.65;;;;;;;13.06;86.15;98391.84;15290132;19;20034;-82
2022/05/28 10:13:25;;;;;;;3.63;0.88;;;;;;;12.77;82.95;98435.75;15291195;19;20018;-86
2022/05/28 10:18:36;;;;;;;3.83;1.00;;;;;;;12.71;86.94;98404.03;15285522;19;20007;-86
2022/05/28 10:23:43;;;;;;;3.50;1.00;;;;;;;12.39;85.80;98440.97;15290011;19;20015;-85
2022/05/28 10:28:53;;;;;;;2.33;0.80;;;;;;;12.74;85.24;98415.34;15291527;19;20027;-84
2022/05/28 10:33:58;;;;;;;3.25;0.95;;;;;;;13.01;80.05;98393.41;15294640;19;20023;-83
2022/05/28 10:39:09;;;;;;;2.00;0.80;;;;;;;13.14;80.18;98393.66;15297719;19;20022;-84
2022/05/28 10:44:19;;;;;;;2.20;0.70;;;;;;;12.95;88.98;98432.81;15324229;19;20050;-82
2022/05/28 10:49:34;;;;;;;1.63;0.60;;;;;;;12.68;75.02;98409.78;15301816;19;20010;-86
2022/05/28 10:55:00;;;;;;;2.30;0.73;;;;;;;13.19;77.87;98395.81;15302645;19;20018;-84
2022/05/28 11:00:13;;;;;;;2.60;0.70;;;;;;;13.05;77.77;98394.75;15289746;19;20082;-85
2022/05/28 11:05:40;;;;;;;2.00;0.73;;;;;;;13.25;86.50;98390.53;15296741;19;20011;-85
2022/05/28 11:11:02;;;;;;;3.13;0.80;;;;;;;13.50;79.69;98390.41;15297042;19;20031;-84
2022/05/28 11:16:28;;;;;;;3.38;0.70;;;;;;;14.07;73.39;98380.06;15303732;19;20010;-85
2022/05/28 11:22:06;;;;;;;2.35;0.80;;;;;;;13.83;74.35;98392.84;15305861;19;20018;-85
2022/05/28 11:27:19;;;;;;;1.98;0.63;;;;;;;13.61;77.94;98382.88;15311308;19;20510;-85
2022/05/28 11:32:30;;;;;;;1.88;0.68;;;;;;;13.69;72.24;98377.41;15308305;19;20015;-86
2022/05/28 11:37:39;;;;;;;2.08;0.80;;;;;;;13.73;75.69;98372.47;15311883;19;20018;-85
2022/05/28 11:42:58;;;;;;;2.08;0.63;;;;;;;14.09;68.37;98379.91;15321324;19;20003;-83
2022/05/28 11:48:10;;;;;;;1.73;0.70;;;;;;;14.51;71.90;98374.88;15321003;19;20049;-86
2022/05/28 11:53:25;;;;;;;1.20;0.60;;;;;;;14.68;65.78;98359.28;15292841;19;20006;-85
2022/05/28 11:58:37;;;;;;;3.08;0.73;;;;;;;14.62;65.33;98358.97;15292026;19;20353;-54
2022/05/28 12:03:48;;;;;;;2.17;0.90;;;;;;;14.30;69.92;98365.63;15279089;19;20123;-57
2022/05/28 12:09:03;;;;;;;3.53;0.80;;;;;;;14.41;69.58;98348.88;15282461;19;20470;-54
2022/05/28 12:14:10;;;;;;;2.92;0.68;;;;;;;14.12;73.50;98352.44;15278918;19;20028;-55
2022/05/28 12:19:27;;;;;;;1.95;0.60;;;;;;;14.27;73.33;98355.16;15278727;19;20015;-60
2022/05/28 12:24:33;;;;;;;1.52;0.55;;;;;;;14.26;72.12;98356.19;15278957;19;20036;-60
2022/05/28 12:29:45;;;;;;;2.38;0.75;;;;;;;14.18;82.75;98338.97;15284568;19;20014;-56
2022/05/28 12:35:01;;;;;;;2.40;0.50;;;;;;;14.76;67.85;98342.91;15278954;19;20023;-58
2022/05/28 12:40:20;;;;;;;2.78;0.68;;;;;;;14.83;66.27;98330.25;15281480;19;20017;-58
2022/05/28 12:45:39;;;;;;;1.25;0.50;;;;;;;14.84;67.18;98323.78;15283370;19;20026;-60
2022/05/28 12:51:16;;;;;;;3.47;0.68;;;;;;;14.10;70.04;98349.91;15283477;19;20010;-57
2022/05/28 12:56:28;;;;;;;1.85;0.60;;;;;;;14.21;76.20;98345.06;15282533;19;20014;-59
2022/05/28 13:01:34;;;;;;;3.03;0.63;;;;;;;14.68;76.62;98335.72;15282585;19;20471;-59
2022/05/28 13:06:51;;;;;;;1.77;0.70;;;;;;;15.13;74.24;98334.72;15285084;19;20362;-58
2022/05/28 13:12:05;;;;;;;2.78;0.80;;;;;;;15.51;72.32;98310.91;15282005;19;20010;-58
2022/05/28 13:17:21;;;;;;;1.02;0.43;;;;;;;15.61;63.08;98299.69;15283048;19;20035;-57
2022/05/28 13:22:49;;;;;;;1.27;0.60;;;;;;;15.51;57.09;98297.31;15274067;19;20026;-60
2022/05/28 13:28:24;;;;;;;4.10;0.60;;;;;;;15.78;55.37;98304.84;15280696;19;20479;-59
2022/05/28 13:33:34;;;;;;;4.40;0.70;;;;;;;15.74;60.31;98295.38;15275881;19;20022;-59
2022/05/28 13:38:45;;;;;;;1.23;0.40;;;;;;;15.65;56.15;98295.53;15279621;19;20708;-59
2022/05/28 13:43:54;;;;;;;4.30;0.70;;;;;;;15.60;59.20;98300.72;15277969;19;21045;-56
2022/05/28 13:49:05;;;;;;;2.17;0.70;;;;;;;15.11;60.36;98299.66;15281801;19;21196;-58
2022/05/28 13:54:20;;;;;;;1.00;0.50;;;;;;;15.00;60.13;98305.59;15275156;19;20031;-58
2022/05/28 13:59:38;;;;;;;1.95;0.80;;;;;;;14.83;59.62;98302.28;15279773;19;20017;-61
2022/05/28 14:04:45;;;;;;;2.40;0.75;;;;;;;14.76;64.48;98322.03;15275756;19;20031;-58
2022/05/28 14:09:54;;;;;;;3.50;0.90;;;;;;;14.76;69.19;98324.75;15278517;19;20022;-59
2022/05/28 14:15:00;;;;;;;2.80;0.70;;;;;;;14.92;68.85;98312.00;15264699;19;20027;-64
2022/05/28 14:20:10;;;;;;;1.15;0.45;;;;;;;14.67;66.58;98312.34;15275337;19;20043;-61
2022/05/28 14:25:25;;;;;;;2.08;0.60;;;;;;;14.56;68.23;98315.50;15271855;19;20040;-62
2022/05/28 14:30:35;;;;;;;2.45;0.70;;;;;;;14.59;74.19;98304.28;15277819;19;20019;-61
2022/05/28 14:35:43;;;;;;;3.90;0.90;;;;;;;15.28;70.75;98288.56;15273291;19;20031;-60
2022/05/28 14:40:54;;;;;;;3.75;0.90;;;;;;;15.94;65.80;98285.53;15275237;19;20014;-59
2022/05/28 14:46:16;;;;;;;1.20;0.63;;;;;;;16.38;67.96;98279.91;15271964;19;20496;-61
2022/05/28 14:51:22;;;;;;;1.98;0.68;;;;;;;15.61;67.23;98277.97;15275324;19;20042;-60
2022/05/28 14:56:34;;;;;;;2.40;0.80;;;;;;;15.61;67.03;98267.09;15272131;19;20014;-61
2022/05/28 15:01:40;;;;;;;2.78;0.80;;;;;;;15.24;69.52;98267.22;15274717;19;20019;-59
2022/05/28 15:06:51;;;;;;;2.78;0.80;;;;;;;14.91;72.35;98277.75;15274631;19;20553;-61
2022/05/28 15:12:20;;;;;;;2.03;0.68;;;;;;;14.64;75.44;98269.31;15273899;19;20026;-62
2022/05/28 15:17:25;;;;;;;3.63;0.90;;;;;;;14.54;74.66;98285.88;15273317;19;20022;-61
2022/05/28 15:22:32;;;;;;;1.95;0.60;;;;;;;14.43;76.02;98276.34;15270774;19;20085;-61
2022/05/28 15:27:40;;;;;;;3.03;0.82;;;;;;;15.23;75.72;98278.25;15269674;19;20041;-61
2022/05/28 15:32:45;;;;;;;2.03;0.70;;;;;;;15.23;72.51;98289.13;15269677;19;20484;-61
2022/05/28 15:37:56;;;;;;;2.90;0.90;;;;;;;15.53;75.83;98289.78;15271529;19;20367;-61
2022/05/28 15:43:06;;;;;;;3.00;0.98;;;;;;;15.35;67.58;98287.56;15270509;19;20007;-61
2022/05/28 15:48:16;;;;;;;1.48;0.60;;;;;;;15.51;67.36;98277.47;15281874;19;20463;-60
2022/05/28 15:53:21;;;;;;;1.75;0.60;;;;;;;15.51;64.62;98288.31;15282775;19;20014;-61
2022/05/28 15:58:31;;;;;;;1.73;0.40;;;;;;;14.86;63.41;98282.94;15285339;19;20027;-61
2022/05/28 16:03:37;;;;;;;1.37;0.50;;;;;;;14.53;63.25;98299.59;15279783;19;20014;-61
2022/05/28 16:08:43;;;;;;;3.35;0.60;;;;;;;14.33;64.27;98292.06;15282946;19;20030;-60
2022/05/28 16:13:52;;;;;;;1.20;0.60;;;;;;;14.16;65.90;98289.59;15256447;19;20031;-61
2022/05/28 16:19:01;;;;;;;2.88;0.60;;;;;;;14.00;68.88;98292.47;15281942;19;20031;-61
2022/05/28 16:24:09;;;;;;;2.55;0.90;;;;;;;13.76;73.44;98289.00;15278633;19;20023;-61
2022/05/28 16:29:17;;;;;;;2.78;0.70;;;;;;;13.38;88.91;98311.50;15285275;19;20015;-60
2022/05/28 16:34:22;;;;;;;3.10;0.88;;;;;;;13.32;100.00;98311.38;15279464;19;20031;-60
2022/05/28 16:39:28;;;;;;;0.90;0.35;;;;;;;13.05;100.00;98316.31;15281159;19;20036;-60
2022/05/28 16:44:36;;;;;;;1.67;0.68;;;;;;;12.73;100.00;98326.31;15279104;19;20022;-59
2022/05/28 16:49:41;;;;;;;1.85;0.60;;;;;;;12.57;100.00;98319.16;15280310;19;20014;-59
2022/05/28 16:54:46;;;;;;;1.20;0.52;;;;;;;12.45;100.00;98305.16;15275780;19;20480;-59
2022/05/28 16:59:54;;;;;;;1.83;0.60;;;;;;;12.29;100.00;98306.91;15274284;19;20365;-61
2022/05/28 17:04:59;;;;;;;1.98;0.60;;;;;;;12.24;100.00;98301.22;15276630;19;20004;-61
2022/05/28 17:10:05;;;;;;;2.05;0.60;;;;;;;12.17;100.00;98311.03;15282071;19;20031;-62
2022/05/28 17:15:16;;;;;;;3.08;0.70;;;;;;;12.20;100.00;98289.06;15279615;19;20014;-62
2022/05/28 17:20:23;;;;;;;2.55;0.65;;;;;;;12.22;100.00;98294.31;15277112;19;20086;-61
2022/05/28 17:25:30;;;;;;;1.80;0.80;;;;;;;12.20;100.00;98289.06;15277408;19;20018;-62
2022/05/28 17:30:41;;;;;;;1.52;0.80;;;;;;;12.29;100.00;98293.41;15279316;19;20051;-61
2022/05/28 17:35:47;;;;;;;1.33;0.70;;;;;;;12.31;100.00;98299.47;15274153;19;20018;-60
2022/05/28 17:40:53;;;;;;;2.65;0.98;;;;;;;12.51;100.00;98296.38;15274320;19;20252;-62
2022/05/28 17:46:19;;;;;;;1.87;0.73;;;;;;;12.79;100.00;98302.13;15272896;19;20018;-61
2022/05/28 17:51:29;;;;;;;1.92;0.80;;;;;;;13.08;98.08;98286.22;15277027;19;20020;-62
2022/05/28 17:56:35;;;;;;;3.67;0.90;;;;;;;13.16;100.00;98293.41;15275558;19;20353;-62
2022/05/28 18:01:46;;;;;;;3.63;0.82;;;;;;;13.14;100.00;98288.16;15271987;19;20010;-63
2022/05/28 18:06:51;;;;;;;2.67;0.93;;;;;;;12.73;100.00;98291.19;15277052;19;20019;-62
2022/05/28 18:11:56;;;;;;;2.85;0.88;;;;;;;12.39;100.00;98290.50;15270829;19;20029;-62
2022/05/28 18:17:05;;;;;;;3.33;1.00;;;;;;;12.12;100.00;98292.63;15275701;19;20010;-62
2022/05/28 18:22:15;;;;;;;3.50;0.80;;;;;;;12.04;100.00;98294.53;15267154;19;20391;-62
2022/05/28 18:27:23;;;;;;;4.35;1.20;;;;;;;11.86;100.00;98298.25;15272577;19;20012;-62
2022/05/28 18:32:31;;;;;;;5.60;1.35;;;;;;;11.67;100.00;98304.88;15270901;19;20118;-59
2022/05/28 18:37:41;;;;;;;5.03;1.00;;;;;;;11.64;100.00;98294.44;15265951;19;20393;-61
2022/05/28 18:42:46;;;;;;;3.90;1.13;;;;;;;11.54;100.00;98286.53;15266454;19;20049;-61
2022/05/28 18:47:54;;;;;;;2.05;0.70;;;;;;;11.34;100.00;98284.19;15269009;19;20047;-61
2022/05/28 18:58:20;;;;;;;4.97;0.60;;;;;;;11.17;100.00;98277.09;15276263;19;20011;-60
2022/05/28 19:03:32;;;;;;;3.67;1.00;;;;;;;11.13;100.00;98282.00;15273595;19;20024;-61
2022/05/28 19:08:40;;;;;;;1.35;0.60;;;;;;;11.05;100.00;98280.13;15273935;19;20376;-61
2022/05/28 19:13:49;;;;;;;1.15;0.47;;;;;;;10.98;100.00;98289.91;15269808;19;20371;-64
2022/05/28 19:18:57;;;;;;;2.05;0.80;;;;;;;10.93;100.00;98279.63;15274493;19;20034;-61
2022/05/28 19:24:02;;;;;;;1.55;0.60;;;;;;;10.90;100.00;98268.31;15284355;19;20017;-60
2022/05/28 19:29:10;;;;;;;2.20;0.60;;;;;;;10.86;100.00;98272.38;15289556;19;20336;-64
2022/05/28 19:34:18;;;;;;;2.53;0.73;;;;;;;10.83;100.00;98286.19;15281300;19;20018;-63
2022/05/28 19:39:23;;;;;;;1.92;0.80;;;;;;;10.78;100.00;98284.81;15286683;19;20015;-60
2022/05/28 19:44:36;;;;;;;2.53;0.77;;;;;;;10.74;100.00;98290.72;15280899;19;20017;-59
2022/05/28 19:49:47;;;;;;;2.78;0.95;;;;;;;10.67;100.00;98290.53;15289404;19;20362;-59
2022/05/28 19:54:55;;;;;;;2.67;0.90;;;;;;;10.61;100.00;98293.91;15283168;19;20010;-58
2022/05/28 20:00:06;;;;;;;4.50;2.05;;;;;;;10.45;100.00;98309.00;15284636;19;20561;-59
2022/05/28 20:05:22;;;;;;;3.33;0.90;;;;;;;10.40;100.00;98299.72;15283978;19;20616;-59
2022/05/28 20:10:29;;;;;;;1.67;0.80;;;;;;;10.28;100.00;98299.16;15288404;19;20011;-59
2022/05/28 20:15:34;;;;;;;2.97;0.98;;;;;;;10.21;100.00;98298.97;15282564;19;20011;-60
2022/05/28 20:20:42;;;;;;;3.22;1.00;;;;;;;10.11;100.00;98304.47;15282654;19;20503;-58
2022/05/28 20:25:48;;;;;;;3.30;1.05;;;;;;;10.07;100.00;98302.25;15279897;19;20006;-57
2022/05/28 20:30:54;;;;;;;2.90;0.80;;;;;;;10.03;100.00;98296.34;15286478;19;20003;-57
2022/05/28 20:36:03;;;;;;;2.72;1.00;;;;;;;9.96;100.00;98300.66;15279596;19;20010;-57
2022/05/28 20:41:09;;;;;;;6.20;1.02;;;;;;;9.89;100.00;98299.63;15283308;19;20007;-58
2022/05/28 20:46:16;;;;;;;3.85;1.10;;;;;;;9.83;100.00;98287.66;15280007;19;20007;-57
2022/05/28 20:51:26;;;;;;;3.60;1.08;;;;;;;9.78;100.00;98289.97;15283631;19;20377;-58
2022/05/28 20:56:34;;;;;;;3.60;1.15;;;;;;;9.73;100.00;98287.78;15280156;19;20014;-59
2022/05/28 21:01:46;;;;;;;4.28;1.02;;;;;;;9.71;100.00;98292.47;15277806;19;20042;-59
2022/05/28 21:06:57;;;;;;;4.23;1.13;;;;;;;9.68;100.00;98287.41;15283919;19;20007;-58
2022/05/28 21:12:02;;;;;;;4.00;1.30;;;;;;;9.63;100.00;98289.72;15281221;19;20015;-56
2022/05/28 21:17:07;;;;;;;4.82;1.35;;;;;;;9.59;100.00;98288.34;15282821;19;20042;-57
2022/05/28 21:22:16;;;;;;;4.53;1.10;;;;;;;9.58;100.00;98279.44;15272893;19;20021;-62
2022/05/28 21:33:14;;;;;;;4.68;1.30;;;;;;;9.53;100.00;98279.06;15267666;19;19987;-57
2022/05/28 21:38:22;;;;;;;4.93;1.17;;;;;;;9.39;100.00;98283.19;15282624;19;20010;-55
2022/05/28 21:43:27;;;;;;;4.00;1.50;;;;;;;9.34;100.00;98280.13;15275584;19;20018;-60
2022/05/28 21:48:34;;;;;;;5.22;1.83;;;;;;;9.21;100.00;98276.00;15278231;19;20014;-59
2022/05/28 21:53:46;;;;;;;4.38;1.60;;;;;;;9.15;100.00;98276.63;15271870;19;20049;-60
2022/05/28 21:58:57;;;;;;;5.82;1.50;;;;;;;9.11;100.00;98280.63;15274694;19;20038;-59
2022/05/28 22:04:03;;;;;;;5.78;1.55;;;;;;;9.06;100.00;98277.56;15276363;19;20368;-62
2022/05/28 22:09:11;;;;;;;4.97;1.50;;;;;;;9.02;100.00;98276.16;15279094;19;20010;-62
2022/05/28 22:14:17;;;;;;;4.32;1.40;;;;;;;8.96;100.00;98274.94;15269727;19;20369;-61
2022/05/28 22:19:27;;;;;;;4.43;1.40;;;;;;;8.87;100.00;98273.19;15276813;19;20477;-61
2022/05/28 22:24:35;;;;;;;3.60;1.23;;;;;;;8.79;100.00;98271.28;15272351;19;20010;-63
2022/05/28 22:29:41;;;;;;;1.90;1.10;;;;;;;8.70;100.00;98264.97;15273455;19;20077;-61
2022/05/28 22:34:47;;;;;;;4.00;1.40;;;;;;;8.59;100.00;98258.00;15270286;19;20011;-61
2022/05/28 22:39:55;;;;;;;5.10;1.40;;;;;;;8.50;100.00;98258.94;15272792;19;20021;-61
2022/05/28 22:45:13;;;;;;;4.10;1.55;;;;;;;8.45;100.00;98258.50;15271263;19;20011;-60
2022/05/28 22:50:25;;;;;;;5.95;1.58;;;;;;;8.35;100.00;98252.34;15272742;19;20585;-61
2022/05/28 22:55:33;;;;;;;5.63;1.33;;;;;;;8.29;100.00;98243.06;15273536;19;20018;-60
2022/05/28 23:00:41;;;;;;;4.47;1.42;;;;;;;8.24;100.00;98238.16;15282532;19;20018;-61
2022/05/28 23:05:49;;;;;;;5.47;1.20;;;;;;;8.21;100.00;98235.75;15283517;19;20014;-58
2022/05/28 23:10:57;;;;;;;4.68;1.45;;;;;;;8.15;100.00;98226.47;15288020;19;20480;-61
2022/05/28 23:16:03;;;;;;;4.15;1.20;;;;;;;8.10;100.00;98222.56;15282435;19;20011;-60
2022/05/28 23:21:19;;;;;;;4.03;1.40;;;;;;;8.02;100.00;98216.09;15284876;19;20006;-60
2022/05/28 23:26:27;;;;;;;3.92;1.40;;;;;;;7.97;100.00;98210.34;15287718;19;20014;-60
2022/05/28 23:31:36;;;;;;;3.55;1.25;;;;;;;7.92;100.00;98198.38;15283769;19;20038;-60
2022/05/28 23:36:44;;;;;;;4.93;1.38;;;;;;;7.84;100.00;98202.66;15289081;19;20011;-60
2022/05/28 23:41:52;;;;;;;4.20;1.40;;;;;;;7.78;100.00;98199.72;15282020;19;20014;-59
2022/05/28 23:47:01;;;;;;;3.88;1.23;;;;;;;7.67;100.00;98185.53;15286957;19;20042;-59
2022/05/28 23:57:51;;;;;;;4.63;1.30;;;;;;;7.46;100.00;98176.88;15286741;19;20668;-59
